sensor_id;sensor_type;location;lat;lon;timestamp;P1;durP1;ratioP1;P2;durP2;ratioP2
6626;SDS011;3349;49.830;8.748;2022-10-22T00:02:16;4.60;;;2.60;;
6626;SDS011;3349;49.830;8.748;2022-10-22T00:04:44;4.88;;;2.63;;
6626;SDS011;3349;49.830;8.748;2022-10-22T00:07:11;3.75;;;2.20;;
6626;SDS011;3349;49.830;8.748;2022-10-22T00:09:38;4.60;;;2.35;;
6626;SDS011;3349;49.830;8.748;2022-10-22T00:12:05;3.92;;;2.20;;
6626;SDS011;3349;49.830;8.748;2022-10-22T00:14:33;6.45;;;2.22;;
6626;SDS011;3349;49.830;8.748;2022-10-22T00:17:00;5.05;;;2.47;;
6626;SDS011;3349;49.830;8.748;2022-10-22T00:19:27;2.85;;;1.92;;
6626;SDS011;3349;49.830;8.748;2022-10-22T00:21:54;4.15;;;1.90;;
6626;SDS011;3349;49.830;8.748;2022-10-22T00:24:22;5.85;;;2.35;;
6626;SDS011;3349;49.830;8.748;2022-10-22T00:26:49;4.15;;;1.88;;
6626;SDS011;3349;49.830;8.748;2022-10-22T00:29:16;4.30;;;1.80;;
6626;SDS011;3349;49.830;8.748;2022-10-22T00:31:45;5.85;;;1.67;;
6626;SDS011;3349;49.830;8.748;2022-10-22T00:34:14;3.10;;;1.63;;
6626;SDS011;3349;49.830;8.748;2022-10-22T00:36:41;2.13;;;1.40;;
6626;SDS011;3349;49.830;8.748;2022-10-22T00:39:08;3.28;;;1.48;;
6626;SDS011;3349;49.830;8.748;2022-10-22T00:41:34;2.63;;;1.23;;
6626;SDS011;3349;49.830;8.748;2022-10-22T00:44:02;4.07;;;1.50;;
6626;SDS011;3349;49.830;8.748;2022-10-22T00:46:30;2.55;;;1.60;;
6626;SDS011;3349;49.830;8.748;2022-10-22T00:48:59;3.17;;;1.52;;
6626;SDS011;3349;49.830;8.748;2022-10-22T00:51:29;3.00;;;1.40;;
6626;SDS011;3349;49.830;8.748;2022-10-22T00:53:59;2.85;;;1.50;;
6626;SDS011;3349;49.830;8.748;2022-10-22T00:56:29;2.53;;;1.50;;
6626;SDS011;3349;49.830;8.748;2022-10-22T00:58:57;2.90;;;1.52;;
6626;SDS011;3349;49.830;8.748;2022-10-22T01:01:26;2.88;;;1.50;;
6626;SDS011;3349;49.830;8.748;2022-10-22T01:03:55;2.40;;;1.40;;
6626;SDS011;3349;49.830;8.748;2022-10-22T01:06:24;1.77;;;1.60;;
6626;SDS011;3349;49.830;8.748;2022-10-22T01:08:55;1.80;;;1.42;;
6626;SDS011;3349;49.830;8.748;2022-10-22T01:11:34;3.10;;;1.45;;
6626;SDS011;3349;49.830;8.748;2022-10-22T01:14:16;4.90;;;1.60;;
6626;SDS011;3349;49.830;8.748;2022-10-22T01:16:52;1.60;;;1.40;;
6626;SDS011;3349;49.830;8.748;2022-10-22T01:19:28;1.35;;;1.25;;
6626;SDS011;3349;49.830;8.748;2022-10-22T01:22:19;8.23;;;1.60;;
6626;SDS011;3349;49.830;8.748;2022-10-22T01:24:52;2.22;;;1.40;;
6626;SDS011;3349;49.830;8.748;2022-10-22T01:27:25;4.03;;;1.92;;
6626;SDS011;3349;49.830;8.748;2022-10-22T01:30:02;3.55;;;1.60;;
6626;SDS011;3349;49.830;8.748;2022-10-22T01:32:31;1.88;;;1.40;;
6626;SDS011;3349;49.830;8.748;2022-10-22T01:35:03;2.75;;;1.50;;
6626;SDS011;3349;49.830;8.748;2022-10-22T01:37:33;4.38;;;1.73;;
6626;SDS011;3349;49.830;8.748;2022-10-22T01:40:03;2.85;;;1.52;;
6626;SDS011;3349;49.830;8.748;2022-10-22T01:42:32;2.40;;;1.73;;
6626;SDS011;3349;49.830;8.748;2022-10-22T01:44:59;4.20;;;1.70;;
6626;SDS011;3349;49.830;8.748;2022-10-22T01:47:30;2.28;;;1.40;;
6626;SDS011;3349;49.830;8.748;2022-10-22T01:50:14;2.58;;;1.63;;
6626;SDS011;3349;49.830;8.748;2022-10-22T01:53:06;2.17;;;1.40;;
6626;SDS011;3349;49.830;8.748;2022-10-22T01:55:45;3.17;;;1.65;;
6626;SDS011;3349;49.830;8.748;2022-10-22T01:58:21;2.75;;;1.50;;
6626;SDS011;3349;49.830;8.748;2022-10-22T02:01:02;4.95;;;1.80;;
6626;SDS011;3349;49.830;8.748;2022-10-22T02:03:37;3.10;;;1.60;;
6626;SDS011;3349;49.830;8.748;2022-10-22T02:06:07;6.13;;;1.77;;
6626;SDS011;3349;49.830;8.748;2022-10-22T02:08:38;3.03;;;1.40;;
6626;SDS011;3349;49.830;8.748;2022-10-22T02:11:07;1.67;;;1.58;;
6626;SDS011;3349;49.830;8.748;2022-10-22T02:13:35;2.13;;;1.60;;
6626;SDS011;3349;49.830;8.748;2022-10-22T02:16:07;2.20;;;1.40;;
6626;SDS011;3349;49.830;8.748;2022-10-22T02:18:37;3.33;;;1.45;;
6626;SDS011;3349;49.830;8.748;2022-10-22T02:21:08;5.63;;;1.75;;
6626;SDS011;3349;49.830;8.748;2022-10-22T02:23:35;2.75;;;1.52;;
6626;SDS011;3349;49.830;8.748;2022-10-22T02:26:03;4.00;;;1.70;;
6626;SDS011;3349;49.830;8.748;2022-10-22T02:28:34;5.00;;;1.70;;
6626;SDS011;3349;49.830;8.748;2022-10-22T02:31:05;4.10;;;1.73;;
6626;SDS011;3349;49.830;8.748;2022-10-22T02:33:40;2.72;;;1.80;;
6626;SDS011;3349;49.830;8.748;2022-10-22T02:36:10;2.63;;;1.70;;
6626;SDS011;3349;49.830;8.748;2022-10-22T02:38:38;3.75;;;1.67;;
6626;SDS011;3349;49.830;8.748;2022-10-22T02:41:07;4.38;;;2.03;;
6626;SDS011;3349;49.830;8.748;2022-10-22T02:43:37;2.45;;;1.70;;
6626;SDS011;3349;49.830;8.748;2022-10-22T02:46:05;4.20;;;1.75;;
6626;SDS011;3349;49.830;8.748;2022-10-22T02:48:32;2.35;;;1.60;;
6626;SDS011;3349;49.830;8.748;2022-10-22T02:51:00;1.60;;;1.50;;
6626;SDS011;3349;49.830;8.748;2022-10-22T02:53:27;3.92;;;1.55;;
6626;SDS011;3349;49.830;8.748;2022-10-22T02:55:54;4.15;;;2.00;;
6626;SDS011;3349;49.830;8.748;2022-10-22T02:58:20;5.20;;;2.05;;
6626;SDS011;3349;49.830;8.748;2022-10-22T03:00:47;3.95;;;1.70;;
6626;SDS011;3349;49.830;8.748;2022-10-22T03:03:14;3.75;;;1.75;;
6626;SDS011;3349;49.830;8.748;2022-10-22T03:05:40;3.58;;;1.67;;
6626;SDS011;3349;49.830;8.748;2022-10-22T03:08:08;5.68;;;2.05;;
6626;SDS011;3349;49.830;8.748;2022-10-22T03:10:35;5.90;;;1.95;;
6626;SDS011;3349;49.830;8.748;2022-10-22T03:13:02;4.53;;;1.50;;
6626;SDS011;3349;49.830;8.748;2022-10-22T03:15:29;3.80;;;2.35;;
6626;SDS011;3349;49.830;8.748;2022-10-22T03:17:56;3.28;;;1.70;;
6626;SDS011;3349;49.830;8.748;2022-10-22T03:20:22;3.03;;;1.63;;
6626;SDS011;3349;49.830;8.748;2022-10-22T03:22:49;2.33;;;1.80;;
6626;SDS011;3349;49.830;8.748;2022-10-22T03:25:18;2.55;;;1.60;;
6626;SDS011;3349;49.830;8.748;2022-10-22T03:27:47;1.77;;;1.65;;
6626;SDS011;3349;49.830;8.748;2022-10-22T03:30:15;3.25;;;1.70;;
6626;SDS011;3349;49.830;8.748;2022-10-22T03:32:42;4.70;;;1.95;;
6626;SDS011;3349;49.830;8.748;2022-10-22T03:35:10;2.90;;;1.63;;
6626;SDS011;3349;49.830;8.748;2022-10-22T03:37:36;2.45;;;1.80;;
6626;SDS011;3349;49.830;8.748;2022-10-22T03:40:04;2.72;;;1.70;;
6626;SDS011;3349;49.830;8.748;2022-10-22T03:42:34;5.63;;;1.67;;
6626;SDS011;3349;49.830;8.748;2022-10-22T03:45:00;4.82;;;1.70;;
6626;SDS011;3349;49.830;8.748;2022-10-22T03:47:27;5.75;;;1.70;;
6626;SDS011;3349;49.830;8.748;2022-10-22T03:49:54;2.30;;;1.55;;
6626;SDS011;3349;49.830;8.748;2022-10-22T03:52:20;3.70;;;1.80;;
6626;SDS011;3349;49.830;8.748;2022-10-22T03:54:47;3.80;;;2.08;;
6626;SDS011;3349;49.830;8.748;2022-10-22T03:57:14;1.63;;;1.52;;
6626;SDS011;3349;49.830;8.748;2022-10-22T03:59:42;3.92;;;2.00;;
6626;SDS011;3349;49.830;8.748;2022-10-22T04:02:11;3.53;;;2.00;;
6626;SDS011;3349;49.830;8.748;2022-10-22T04:04:38;4.47;;;1.98;;
6626;SDS011;3349;49.830;8.748;2022-10-22T04:07:06;4.85;;;2.17;;
6626;SDS011;3349;49.830;8.748;2022-10-22T04:09:33;2.55;;;1.92;;
6626;SDS011;3349;49.830;8.748;2022-10-22T04:12:00;5.60;;;4.55;;
6626;SDS011;3349;49.830;8.748;2022-10-22T04:14:29;6.38;;;3.33;;
6626;SDS011;3349;49.830;8.748;2022-10-22T04:16:57;3.80;;;2.40;;
6626;SDS011;3349;49.830;8.748;2022-10-22T04:19:24;4.18;;;2.42;;
6626;SDS011;3349;49.830;8.748;2022-10-22T04:21:51;9.18;;;2.78;;
6626;SDS011;3349;49.830;8.748;2022-10-22T04:24:18;5.65;;;3.22;;
6626;SDS011;3349;49.830;8.748;2022-10-22T04:26:44;5.15;;;2.83;;
6626;SDS011;3349;49.830;8.748;2022-10-22T04:29:11;3.17;;;2.50;;
6626;SDS011;3349;49.830;8.748;2022-10-22T04:31:38;2.75;;;1.90;;
6626;SDS011;3349;49.830;8.748;2022-10-22T04:34:06;2.97;;;1.58;;
6626;SDS011;3349;49.830;8.748;2022-10-22T04:36:33;2.22;;;1.92;;
6626;SDS011;3349;49.830;8.748;2022-10-22T04:38:59;6.50;;;1.90;;
6626;SDS011;3349;49.830;8.748;2022-10-22T04:41:27;3.33;;;1.63;;
6626;SDS011;3349;49.830;8.748;2022-10-22T04:43:56;3.38;;;1.77;;
6626;SDS011;3349;49.830;8.748;2022-10-22T04:46:23;2.75;;;1.70;;
6626;SDS011;3349;49.830;8.748;2022-10-22T04:48:51;2.42;;;1.70;;
6626;SDS011;3349;49.830;8.748;2022-10-22T04:51:20;1.73;;;1.50;;
6626;SDS011;3349;49.830;8.748;2022-10-22T04:53:48;3.78;;;1.52;;
6626;SDS011;3349;49.830;8.748;2022-10-22T04:56:16;2.85;;;1.70;;
6626;SDS011;3349;49.830;8.748;2022-10-22T04:58:45;3.80;;;1.90;;
6626;SDS011;3349;49.830;8.748;2022-10-22T05:01:13;1.90;;;1.60;;
6626;SDS011;3349;49.830;8.748;2022-10-22T05:03:41;2.03;;;1.30;;
6626;SDS011;3349;49.830;8.748;2022-10-22T05:06:08;2.80;;;1.35;;
6626;SDS011;3349;49.830;8.748;2022-10-22T05:08:37;2.83;;;1.13;;
6626;SDS011;3349;49.830;8.748;2022-10-22T05:11:09;4.20;;;1.55;;
6626;SDS011;3349;49.830;8.748;2022-10-22T05:13:37;1.75;;;1.40;;
6626;SDS011;3349;49.830;8.748;2022-10-22T05:16:04;3.65;;;1.20;;
6626;SDS011;3349;49.830;8.748;2022-10-22T05:18:32;4.15;;;1.40;;
6626;SDS011;3349;49.830;8.748;2022-10-22T05:21:00;7.03;;;1.90;;
6626;SDS011;3349;49.830;8.748;2022-10-22T05:23:27;3.13;;;1.90;;
6626;SDS011;3349;49.830;8.748;2022-10-22T05:25:55;4.32;;;2.03;;
6626;SDS011;3349;49.830;8.748;2022-10-22T05:28:22;2.13;;;1.27;;
6626;SDS011;3349;49.830;8.748;2022-10-22T05:30:52;3.75;;;1.50;;
6626;SDS011;3349;49.830;8.748;2022-10-22T05:33:19;3.85;;;1.10;;
6626;SDS011;3349;49.830;8.748;2022-10-22T05:35:47;2.20;;;1.15;;
6626;SDS011;3349;49.830;8.748;2022-10-22T05:38:13;1.10;;;1.00;;
6626;SDS011;3349;49.830;8.748;2022-10-22T05:40:40;3.53;;;1.20;;
6626;SDS011;3349;49.830;8.748;2022-10-22T05:43:08;2.53;;;1.55;;
6626;SDS011;3349;49.830;8.748;2022-10-22T05:45:36;2.55;;;1.60;;
6626;SDS011;3349;49.830;8.748;2022-10-22T05:48:03;2.35;;;1.95;;
6626;SDS011;3349;49.830;8.748;2022-10-22T05:50:31;3.45;;;2.17;;
6626;SDS011;3349;49.830;8.748;2022-10-22T05:53:00;2.40;;;1.55;;
6626;SDS011;3349;49.830;8.748;2022-10-22T05:55:27;3.25;;;1.52;;
6626;SDS011;3349;49.830;8.748;2022-10-22T05:57:54;1.88;;;1.00;;
6626;SDS011;3349;49.830;8.748;2022-10-22T06:00:22;1.10;;;1.00;;
6626;SDS011;3349;49.830;8.748;2022-10-22T06:02:49;1.42;;;0.90;;
6626;SDS011;3349;49.830;8.748;2022-10-22T06:05:16;1.95;;;1.05;;
6626;SDS011;3349;49.830;8.748;2022-10-22T06:07:42;1.45;;;1.08;;
6626;SDS011;3349;49.830;8.748;2022-10-22T06:10:10;1.50;;;1.10;;
6626;SDS011;3349;49.830;8.748;2022-10-22T06:12:40;2.45;;;1.50;;
6626;SDS011;3349;49.830;8.748;2022-10-22T06:15:08;1.77;;;1.38;;
6626;SDS011;3349;49.830;8.748;2022-10-22T06:17:37;2.50;;;1.20;;
6626;SDS011;3349;49.830;8.748;2022-10-22T06:20:05;2.80;;;1.23;;
6626;SDS011;3349;49.830;8.748;2022-10-22T06:22:32;4.53;;;1.35;;
6626;SDS011;3349;49.830;8.748;2022-10-22T06:24:59;3.92;;;1.50;;
6626;SDS011;3349;49.830;8.748;2022-10-22T06:27:26;3.13;;;1.55;;
6626;SDS011;3349;49.830;8.748;2022-10-22T06:29:53;2.65;;;1.40;;
6626;SDS011;3349;49.830;8.748;2022-10-22T06:32:19;1.90;;;1.33;;
6626;SDS011;3349;49.830;8.748;2022-10-22T06:34:47;4.28;;;1.10;;
6626;SDS011;3349;49.830;8.748;2022-10-22T06:37:14;2.55;;;1.20;;
6626;SDS011;3349;49.830;8.748;2022-10-22T06:39:41;2.70;;;1.00;;
6626;SDS011;3349;49.830;8.748;2022-10-22T06:42:08;4.30;;;1.20;;
6626;SDS011;3349;49.830;8.748;2022-10-22T06:44:35;8.50;;;1.30;;
6626;SDS011;3349;49.830;8.748;2022-10-22T06:47:01;2.60;;;1.38;;
6626;SDS011;3349;49.830;8.748;2022-10-22T06:49:28;5.90;;;0.98;;
6626;SDS011;3349;49.830;8.748;2022-10-22T06:51:56;2.80;;;1.00;;
6626;SDS011;3349;49.830;8.748;2022-10-22T06:54:23;2.50;;;1.30;;
6626;SDS011;3349;49.830;8.748;2022-10-22T06:56:50;5.50;;;1.45;;
6626;SDS011;3349;49.830;8.748;2022-10-22T06:59:16;2.08;;;1.27;;
6626;SDS011;3349;49.830;8.748;2022-10-22T07:01:43;2.58;;;1.40;;
6626;SDS011;3349;49.830;8.748;2022-10-22T07:04:10;2.40;;;1.20;;
6626;SDS011;3349;49.830;8.748;2022-10-22T07:06:37;2.00;;;1.10;;
6626;SDS011;3349;49.830;8.748;2022-10-22T07:09:05;3.83;;;1.10;;
6626;SDS011;3349;49.830;8.748;2022-10-22T07:11:36;2.75;;;1.38;;
6626;SDS011;3349;49.830;8.748;2022-10-22T07:14:05;2.15;;;1.40;;
6626;SDS011;3349;49.830;8.748;2022-10-22T07:16:31;2.95;;;1.13;;
6626;SDS011;3349;49.830;8.748;2022-10-22T07:18:58;1.60;;;1.00;;
6626;SDS011;3349;49.830;8.748;2022-10-22T07:21:25;3.83;;;1.10;;
6626;SDS011;3349;49.830;8.748;2022-10-22T07:23:52;2.90;;;1.30;;
6626;SDS011;3349;49.830;8.748;2022-10-22T07:26:22;1.45;;;1.20;;
6626;SDS011;3349;49.830;8.748;2022-10-22T07:28:54;4.05;;;1.00;;
6626;SDS011;3349;49.830;8.748;2022-10-22T07:31:21;1.95;;;1.10;;
6626;SDS011;3349;49.830;8.748;2022-10-22T07:33:48;1.70;;;1.10;;
6626;SDS011;3349;49.830;8.748;2022-10-22T07:36:15;1.30;;;1.10;;
6626;SDS011;3349;49.830;8.748;2022-10-22T07:38:42;3.10;;;1.15;;
6626;SDS011;3349;49.830;8.748;2022-10-22T07:41:09;2.45;;;1.85;;
6626;SDS011;3349;49.830;8.748;2022-10-22T07:43:38;4.03;;;1.25;;
6626;SDS011;3349;49.830;8.748;2022-10-22T07:46:05;2.65;;;1.20;;
6626;SDS011;3349;49.830;8.748;2022-10-22T07:48:32;2.28;;;0.88;;
6626;SDS011;3349;49.830;8.748;2022-10-22T07:50:59;1.15;;;0.82;;
6626;SDS011;3349;49.830;8.748;2022-10-22T07:53:26;5.55;;;1.13;;
6626;SDS011;3349;49.830;8.748;2022-10-22T07:55:53;1.77;;;1.10;;
6626;SDS011;3349;49.830;8.748;2022-10-22T07:58:20;2.45;;;0.95;;
6626;SDS011;3349;49.830;8.748;2022-10-22T08:00:49;2.58;;;1.23;;
6626;SDS011;3349;49.830;8.748;2022-10-22T08:03:16;3.00;;;1.25;;
6626;SDS011;3349;49.830;8.748;2022-10-22T08:05:43;1.10;;;0.90;;
6626;SDS011;3349;49.830;8.748;2022-10-22T08:08:11;3.88;;;1.10;;
6626;SDS011;3349;49.830;8.748;2022-10-22T08:10:38;1.63;;;1.20;;
6626;SDS011;3349;49.830;8.748;2022-10-22T08:13:05;3.17;;;0.85;;
6626;SDS011;3349;49.830;8.748;2022-10-22T08:15:33;1.00;;;0.90;;
6626;SDS011;3349;49.830;8.748;2022-10-22T08:18:01;0.80;;;0.80;;
6626;SDS011;3349;49.830;8.748;2022-10-22T08:20:28;4.47;;;1.10;;
6626;SDS011;3349;49.830;8.748;2022-10-22T08:22:54;2.28;;;0.93;;
6626;SDS011;3349;49.830;8.748;2022-10-22T08:25:21;3.78;;;1.67;;
6626;SDS011;3349;49.830;8.748;2022-10-22T08:27:48;1.50;;;0.98;;
6626;SDS011;3349;49.830;8.748;2022-10-22T08:30:15;2.03;;;0.80;;
6626;SDS011;3349;49.830;8.748;2022-10-22T08:32:42;1.35;;;0.90;;
6626;SDS011;3349;49.830;8.748;2022-10-22T08:35:10;1.88;;;1.10;;
6626;SDS011;3349;49.830;8.748;2022-10-22T08:37:37;1.45;;;1.00;;
6626;SDS011;3349;49.830;8.748;2022-10-22T08:40:04;2.65;;;1.40;;
6626;SDS011;3349;49.830;8.748;2022-10-22T08:42:37;2.88;;;1.33;;
6626;SDS011;3349;49.830;8.748;2022-10-22T08:45:26;3.25;;;0.80;;
6626;SDS011;3349;49.830;8.748;2022-10-22T08:48:02;5.97;;;1.15;;
6626;SDS011;3349;49.830;8.748;2022-10-22T08:50:40;3.15;;;1.23;;
6626;SDS011;3349;49.830;8.748;2022-10-22T08:53:11;1.70;;;1.17;;
6626;SDS011;3349;49.830;8.748;2022-10-22T08:55:40;1.83;;;1.02;;
6626;SDS011;3349;49.830;8.748;2022-10-22T08:58:10;3.28;;;1.40;;
6626;SDS011;3349;49.830;8.748;2022-10-22T09:00:45;2.28;;;1.27;;
6626;SDS011;3349;49.830;8.748;2022-10-22T09:03:30;1.20;;;1.10;;
6626;SDS011;3349;49.830;8.748;2022-10-22T09:06:07;2.08;;;1.40;;
6626;SDS011;3349;49.830;8.748;2022-10-22T09:08:37;2.40;;;1.35;;
6626;SDS011;3349;49.830;8.748;2022-10-22T09:11:06;1.23;;;0.90;;
6626;SDS011;3349;49.830;8.748;2022-10-22T09:13:43;1.95;;;1.20;;
6626;SDS011;3349;49.830;8.748;2022-10-22T09:16:13;6.80;;;2.33;;
6626;SDS011;3349;49.830;8.748;2022-10-22T09:18:44;1.70;;;1.30;;
6626;SDS011;3349;49.830;8.748;2022-10-22T09:21:22;2.65;;;1.40;;
6626;SDS011;3349;49.830;8.748;2022-10-22T09:23:58;3.92;;;1.38;;
6626;SDS011;3349;49.830;8.748;2022-10-22T09:26:30;3.58;;;1.10;;
6626;SDS011;3349;49.830;8.748;2022-10-22T09:28:59;1.60;;;1.27;;
6626;SDS011;3349;49.830;8.748;2022-10-22T09:31:26;2.42;;;1.20;;
6626;SDS011;3349;49.830;8.748;2022-10-22T09:33:56;2.97;;;1.00;;
6626;SDS011;3349;49.830;8.748;2022-10-22T09:36:31;2.83;;;1.35;;
6626;SDS011;3349;49.830;8.748;2022-10-22T09:38:58;2.53;;;1.10;;
6626;SDS011;3349;49.830;8.748;2022-10-22T09:41:26;2.45;;;1.30;;
6626;SDS011;3349;49.830;8.748;2022-10-22T09:43:54;1.75;;;1.30;;
6626;SDS011;3349;49.830;8.748;2022-10-22T09:46:22;3.95;;;1.52;;
6626;SDS011;3349;49.830;8.748;2022-10-22T09:49:00;1.48;;;1.27;;
6626;SDS011;3349;49.830;8.748;2022-10-22T09:51:47;1.98;;;1.17;;
6626;SDS011;3349;49.830;8.748;2022-10-22T09:54:19;2.95;;;1.60;;
6626;SDS011;3349;49.830;8.748;2022-10-22T09:56:52;3.05;;;1.33;;
6626;SDS011;3349;49.830;8.748;2022-10-22T09:59:28;3.28;;;1.25;;
6626;SDS011;3349;49.830;8.748;2022-10-22T10:02:00;2.85;;;1.40;;
6626;SDS011;3349;49.830;8.748;2022-10-22T10:04:33;2.47;;;1.30;;
6626;SDS011;3349;49.830;8.748;2022-10-22T10:07:02;2.42;;;1.30;;
6626;SDS011;3349;49.830;8.748;2022-10-22T10:09:29;3.90;;;1.58;;
6626;SDS011;3349;49.830;8.748;2022-10-22T10:12:02;3.83;;;1.35;;
6626;SDS011;3349;49.830;8.748;2022-10-22T10:14:40;2.35;;;1.25;;
6626;SDS011;3349;49.830;8.748;2022-10-22T10:17:15;4.13;;;1.50;;
6626;SDS011;3349;49.830;8.748;2022-10-22T10:19:53;2.85;;;1.33;;
6626;SDS011;3349;49.830;8.748;2022-10-22T10:22:39;1.95;;;1.30;;
6626;SDS011;3349;49.830;8.748;2022-10-22T10:25:16;2.90;;;1.75;;
6626;SDS011;3349;49.830;8.748;2022-10-22T10:27:54;1.70;;;1.17;;
6626;SDS011;3349;49.830;8.748;2022-10-22T10:30:26;7.72;;;1.65;;
6626;SDS011;3349;49.830;8.748;2022-10-22T10:32:57;2.35;;;1.27;;
6626;SDS011;3349;49.830;8.748;2022-10-22T10:35:41;4.38;;;1.42;;
6626;SDS011;3349;49.830;8.748;2022-10-22T10:38:18;3.45;;;1.40;;
6626;SDS011;3349;49.830;8.748;2022-10-22T10:41:03;3.42;;;1.63;;
6626;SDS011;3349;49.830;8.748;2022-10-22T10:43:43;2.88;;;1.40;;
6626;SDS011;3349;49.830;8.748;2022-10-22T10:46:24;4.40;;;1.80;;
6626;SDS011;3349;49.830;8.748;2022-10-22T10:49:00;4.38;;;1.60;;
6626;SDS011;3349;49.830;8.748;2022-10-22T10:51:36;2.42;;;1.60;;
6626;SDS011;3349;49.830;8.748;2022-10-22T10:54:17;3.05;;;1.50;;
6626;SDS011;3349;49.830;8.748;2022-10-22T10:56:57;2.67;;;1.60;;
6626;SDS011;3349;49.830;8.748;2022-10-22T10:59:34;5.13;;;1.75;;
6626;SDS011;3349;49.830;8.748;2022-10-22T11:02:12;2.53;;;1.50;;
6626;SDS011;3349;49.830;8.748;2022-10-22T11:05:02;4.03;;;1.85;;
6626;SDS011;3349;49.830;8.748;2022-10-22T11:07:41;2.38;;;1.50;;
6626;SDS011;3349;49.830;8.748;2022-10-22T11:10:21;3.78;;;1.70;;
6626;SDS011;3349;49.830;8.748;2022-10-22T11:12:54;3.95;;;1.35;;
6626;SDS011;3349;49.830;8.748;2022-10-22T11:15:27;3.70;;;1.70;;
6626;SDS011;3349;49.830;8.748;2022-10-22T11:17:58;2.22;;;1.42;;
6626;SDS011;3349;49.830;8.748;2022-10-22T11:20:35;2.90;;;1.60;;
6626;SDS011;3349;49.830;8.748;2022-10-22T11:23:10;2.83;;;1.60;;
6626;SDS011;3349;49.830;8.748;2022-10-22T11:25:44;4.53;;;1.48;;
6626;SDS011;3349;49.830;8.748;2022-10-22T11:28:13;3.17;;;1.38;;
6626;SDS011;3349;49.830;8.748;2022-10-22T11:30:42;3.42;;;1.30;;
6626;SDS011;3349;49.830;8.748;2022-10-22T11:33:14;4.43;;;1.33;;
6626;SDS011;3349;49.830;8.748;2022-10-22T11:35:44;5.70;;;1.48;;
6626;SDS011;3349;49.830;8.748;2022-10-22T11:38:13;2.30;;;1.45;;
6626;SDS011;3349;49.830;8.748;2022-10-22T11:40:45;4.60;;;1.67;;
6626;SDS011;3349;49.830;8.748;2022-10-22T11:43:25;3.67;;;1.50;;
6626;SDS011;3349;49.830;8.748;2022-10-22T11:45:56;5.25;;;1.52;;
6626;SDS011;3349;49.830;8.748;2022-10-22T11:48:27;2.53;;;1.40;;
6626;SDS011;3349;49.830;8.748;2022-10-22T11:51:00;5.50;;;1.67;;
6626;SDS011;3349;49.830;8.748;2022-10-22T11:53:29;2.67;;;1.42;;
6626;SDS011;3349;49.830;8.748;2022-10-22T11:56:02;2.20;;;1.38;;
6626;SDS011;3349;49.830;8.748;2022-10-22T11:58:46;3.53;;;1.33;;
6626;SDS011;3349;49.830;8.748;2022-10-22T12:01:21;4.80;;;1.85;;
6626;SDS011;3349;49.830;8.748;2022-10-22T12:03:50;2.15;;;1.38;;
6626;SDS011;3349;49.830;8.748;2022-10-22T12:06:19;2.00;;;1.38;;
6626;SDS011;3349;49.830;8.748;2022-10-22T12:08:54;3.97;;;1.60;;
6626;SDS011;3349;49.830;8.748;2022-10-22T12:11:26;3.17;;;1.50;;
6626;SDS011;3349;49.830;8.748;2022-10-22T12:14:13;4.65;;;1.70;;
6626;SDS011;3349;49.830;8.748;2022-10-22T12:16:44;3.65;;;1.70;;
6626;SDS011;3349;49.830;8.748;2022-10-22T12:19:14;5.47;;;1.80;;
6626;SDS011;3349;49.830;8.748;2022-10-22T12:21:44;5.22;;;1.60;;
6626;SDS011;3349;49.830;8.748;2022-10-22T12:24:14;4.05;;;1.60;;
6626;SDS011;3349;49.830;8.748;2022-10-22T12:26:43;3.38;;;1.60;;
6626;SDS011;3349;49.830;8.748;2022-10-22T12:29:11;4.43;;;1.40;;
6626;SDS011;3349;49.830;8.748;2022-10-22T12:31:40;5.85;;;1.77;;
6626;SDS011;3349;49.830;8.748;2022-10-22T12:34:12;4.93;;;1.55;;
6626;SDS011;3349;49.830;8.748;2022-10-22T12:36:39;4.40;;;1.60;;
6626;SDS011;3349;49.830;8.748;2022-10-22T12:39:09;4.80;;;1.50;;
6626;SDS011;3349;49.830;8.748;2022-10-22T12:41:38;3.47;;;1.25;;
6626;SDS011;3349;49.830;8.748;2022-10-22T12:44:09;4.63;;;1.60;;
6626;SDS011;3349;49.830;8.748;2022-10-22T12:46:37;5.07;;;1.65;;
6626;SDS011;3349;49.830;8.748;2022-10-22T12:49:05;2.70;;;1.73;;
6626;SDS011;3349;49.830;8.748;2022-10-22T12:51:36;4.72;;;1.55;;
6626;SDS011;3349;49.830;8.748;2022-10-22T12:54:05;3.50;;;1.50;;
6626;SDS011;3349;49.830;8.748;2022-10-22T12:56:34;4.93;;;1.50;;
6626;SDS011;3349;49.830;8.748;2022-10-22T12:59:04;3.38;;;1.40;;
6626;SDS011;3349;49.830;8.748;2022-10-22T13:01:38;5.95;;;1.48;;
6626;SDS011;3349;49.830;8.748;2022-10-22T13:04:17;2.65;;;1.60;;
6626;SDS011;3349;49.830;8.748;2022-10-22T13:06:46;2.05;;;1.30;;
6626;SDS011;3349;49.830;8.748;2022-10-22T13:09:15;2.40;;;1.33;;
6626;SDS011;3349;49.830;8.748;2022-10-22T13:11:47;3.78;;;1.60;;
6626;SDS011;3349;49.830;8.748;2022-10-22T13:14:18;3.65;;;1.50;;
6626;SDS011;3349;49.830;8.748;2022-10-22T13:17:01;5.70;;;1.60;;
6626;SDS011;3349;49.830;8.748;2022-10-22T13:19:35;4.38;;;1.30;;
6626;SDS011;3349;49.830;8.748;2022-10-22T13:22:04;2.28;;;1.40;;
6626;SDS011;3349;49.830;8.748;2022-10-22T13:24:48;3.75;;;1.60;;
6626;SDS011;3349;49.830;8.748;2022-10-22T13:27:15;4.82;;;1.50;;
6626;SDS011;3349;49.830;8.748;2022-10-22T13:29:44;3.78;;;1.80;;
6626;SDS011;3349;49.830;8.748;2022-10-22T13:32:18;6.07;;;1.50;;
6626;SDS011;3349;49.830;8.748;2022-10-22T13:34:52;3.50;;;1.70;;
6626;SDS011;3349;49.830;8.748;2022-10-22T13:37:19;3.95;;;1.40;;
6626;SDS011;3349;49.830;8.748;2022-10-22T13:39:45;4.45;;;1.70;;
6626;SDS011;3349;49.830;8.748;2022-10-22T13:42:12;4.97;;;1.73;;
6626;SDS011;3349;49.830;8.748;2022-10-22T13:44:39;8.77;;;1.42;;
6626;SDS011;3349;49.830;8.748;2022-10-22T13:47:09;7.70;;;1.50;;
6626;SDS011;3349;49.830;8.748;2022-10-22T13:49:50;3.80;;;1.50;;
6626;SDS011;3349;49.830;8.748;2022-10-22T13:52:26;4.97;;;1.40;;
6626;SDS011;3349;49.830;8.748;2022-10-22T13:54:54;2.80;;;1.48;;
6626;SDS011;3349;49.830;8.748;2022-10-22T13:57:21;5.47;;;1.80;;
6626;SDS011;3349;49.830;8.748;2022-10-22T13:59:48;2.60;;;1.80;;
6626;SDS011;3349;49.830;8.748;2022-10-22T14:02:16;3.67;;;2.00;;
6626;SDS011;3349;49.830;8.748;2022-10-22T14:04:43;6.53;;;2.45;;
6626;SDS011;3349;49.830;8.748;2022-10-22T14:07:11;5.45;;;1.80;;
6626;SDS011;3349;49.830;8.748;2022-10-22T14:09:39;3.72;;;1.77;;
6626;SDS011;3349;49.830;8.748;2022-10-22T14:12:09;6.40;;;1.83;;
6626;SDS011;3349;49.830;8.748;2022-10-22T14:14:37;2.63;;;1.70;;
6626;SDS011;3349;49.830;8.748;2022-10-22T14:17:04;3.33;;;1.70;;
6626;SDS011;3349;49.830;8.748;2022-10-22T14:19:35;5.97;;;1.77;;
6626;SDS011;3349;49.830;8.748;2022-10-22T14:22:02;4.88;;;1.80;;
6626;SDS011;3349;49.830;8.748;2022-10-22T14:24:29;2.65;;;1.67;;
6626;SDS011;3349;49.830;8.748;2022-10-22T14:26:56;8.02;;;2.00;;
6626;SDS011;3349;49.830;8.748;2022-10-22T14:29:22;4.25;;;1.60;;
6626;SDS011;3349;49.830;8.748;2022-10-22T14:31:49;4.53;;;1.65;;
6626;SDS011;3349;49.830;8.748;2022-10-22T14:34:16;4.50;;;1.55;;
6626;SDS011;3349;49.830;8.748;2022-10-22T14:36:44;4.88;;;1.77;;
6626;SDS011;3349;49.830;8.748;2022-10-22T14:39:11;5.80;;;1.67;;
6626;SDS011;3349;49.830;8.748;2022-10-22T14:41:38;4.03;;;1.58;;
6626;SDS011;3349;49.830;8.748;2022-10-22T14:44:05;3.55;;;1.90;;
6626;SDS011;3349;49.830;8.748;2022-10-22T14:46:36;2.78;;;1.80;;
6626;SDS011;3349;49.830;8.748;2022-10-22T14:49:04;3.85;;;1.60;;
6626;SDS011;3349;49.830;8.748;2022-10-22T14:51:31;2.75;;;2.00;;
6626;SDS011;3349;49.830;8.748;2022-10-22T14:53:59;3.60;;;1.80;;
6626;SDS011;3349;49.830;8.748;2022-10-22T14:56:25;3.03;;;2.00;;
6626;SDS011;3349;49.830;8.748;2022-10-22T14:58:52;2.92;;;1.92;;
6626;SDS011;3349;49.830;8.748;2022-10-22T15:01:19;3.72;;;1.90;;
6626;SDS011;3349;49.830;8.748;2022-10-22T15:03:45;4.07;;;2.33;;
6626;SDS011;3349;49.830;8.748;2022-10-22T15:06:12;6.03;;;1.70;;
6626;SDS011;3349;49.830;8.748;2022-10-22T15:08:39;4.25;;;1.85;;
6626;SDS011;3349;49.830;8.748;2022-10-22T15:11:09;1.83;;;1.48;;
6626;SDS011;3349;49.830;8.748;2022-10-22T15:13:37;9.18;;;2.08;;
6626;SDS011;3349;49.830;8.748;2022-10-22T15:16:05;4.57;;;2.00;;
6626;SDS011;3349;49.830;8.748;2022-10-22T15:18:34;2.67;;;1.88;;
6626;SDS011;3349;49.830;8.748;2022-10-22T15:21:01;4.68;;;2.03;;
6626;SDS011;3349;49.830;8.748;2022-10-22T15:23:29;8.52;;;1.98;;
6626;SDS011;3349;49.830;8.748;2022-10-22T15:25:56;4.55;;;2.28;;
6626;SDS011;3349;49.830;8.748;2022-10-22T15:28:25;4.43;;;2.00;;
6626;SDS011;3349;49.830;8.748;2022-10-22T15:30:52;4.55;;;2.00;;
6626;SDS011;3349;49.830;8.748;2022-10-22T15:33:20;4.97;;;1.73;;